APZ1012 RKPC-RKSS
Flight info
| Callsign | APZ1012 |
|---|---|
| Flight time | 0h 50m |
| Altitude | 25000 |
| Route | KAMIT1W KAMIT Y722 OLMEN OLMEN2T |
| Aircraft | B738/M-SDE2E3FGHIRWXY/LB1 |
Departure
| Time | 2026-05-04 02:10 |
|---|---|
| Airport | Jeju International Airport (RKPC) |
Arrival
| Time | 2026-05-04 03:00 |
|---|---|
| Airport | Gimpo International Airport (RKSS) |
| Time | Latitude | Longitude | Altitude | Speed | Heading |
|---|---|---|---|---|---|
| 2026-05-04 01:49 | 33.50804 | 126.49441 | 92 ft | 0 kts | 177° |
| 2026-05-04 02:03 | 33.50815 | 126.49440 | 92 ft | 4 kts | 176° |
| 2026-05-04 02:03 | 33.50842 | 126.49438 | 90 ft | 4 kts | 174° |
| 2026-05-04 02:04 | 33.50869 | 126.49434 | 89 ft | 4 kts | 175° |
| 2026-05-04 02:04 | 33.50892 | 126.49433 | 90 ft | 4 kts | 172° |
| 2026-05-04 02:04 | 33.50915 | 126.49423 | 89 ft | 4 kts | 134° |
| 2026-05-04 02:04 | 33.50924 | 126.49398 | 90 ft | 4 kts | 79° |
| 2026-05-04 02:05 | 33.50914 | 126.49370 | 90 ft | 4 kts | 58° |
| 2026-05-04 02:05 | 33.50904 | 126.49349 | 91 ft | 0 kts | 58° |
| 2026-05-04 02:07 | 33.50916 | 126.49374 | 90 ft | 9 kts | 59° |
| 2026-05-04 02:07 | 33.50966 | 126.49474 | 87 ft | 17 kts | 59° |
| 2026-05-04 02:08 | 33.51034 | 126.49590 | 85 ft | 17 kts | 43° |
| 2026-05-04 02:08 | 33.51137 | 126.49644 | 87 ft | 16 kts | 19° |
| 2026-05-04 02:08 | 33.51239 | 126.49688 | 88 ft | 15 kts | 23° |
| 2026-05-04 02:08 | 33.51305 | 126.49783 | 89 ft | 15 kts | 58° |
| 2026-05-04 02:09 | 33.51393 | 126.49814 | 91 ft | 14 kts | 337° |
| 2026-05-04 02:09 | 33.51463 | 126.49741 | 91 ft | 14 kts | 282° |
| 2026-05-04 02:09 | 33.51429 | 126.49643 | 93 ft | 13 kts | 239° |
| 2026-05-04 02:09 | 33.51279 | 126.49350 | 89 ft | 78 kts | 239° |
| 2026-05-04 02:10 | 33.50874 | 126.48563 | 92 ft | 141 kts | 238° |
| 2026-05-04 02:10 | 33.50363 | 126.47379 | 458 ft | 165 kts | 246° |
| 2026-05-04 02:10 | 33.49785 | 126.46163 | 1345 ft | 169 kts | 239° |
| 2026-05-04 02:10 | 33.49128 | 126.44972 | 2405 ft | 172 kts | 242° |
| 2026-05-04 02:11 | 33.48458 | 126.43743 | 3206 ft | 189 kts | 243° |
| 2026-05-04 02:11 | 33.47713 | 126.42328 | 3708 ft | 213 kts | 244° |
| 2026-05-04 02:11 | 33.46873 | 126.40720 | 4038 ft | 240 kts | 243° |
| 2026-05-04 02:11 | 33.45953 | 126.38952 | 4592 ft | 256 kts | 242° |
| 2026-05-04 02:12 | 33.45246 | 126.37031 | 5521 ft | 251 kts | 265° |
| 2026-05-04 02:12 | 33.45408 | 126.34995 | 6420 ft | 249 kts | 292° |
| 2026-05-04 02:12 | 33.46319 | 126.33257 | 7346 ft | 247 kts | 314° |
| 2026-05-04 02:12 | 33.47718 | 126.32065 | 8238 ft | 250 kts | 334° |
| 2026-05-04 02:13 | 33.49356 | 126.31292 | 9127 ft | 253 kts | 337° |
| 2026-05-04 02:13 | 33.51083 | 126.30825 | 10016 ft | 262 kts | 359° |
| 2026-05-04 02:13 | 33.52890 | 126.31341 | 10531 ft | 286 kts | 16° |
| 2026-05-04 02:13 | 33.54783 | 126.32404 | 10725 ft | 314 kts | 20° |
| 2026-05-04 02:14 | 33.56797 | 126.33671 | 10925 ft | 337 kts | 22° |
| 2026-05-04 02:14 | 33.58903 | 126.35035 | 11421 ft | 348 kts | 22° |
| 2026-05-04 02:14 | 33.61047 | 126.36430 | 12197 ft | 350 kts | 22° |
| 2026-05-04 02:14 | 33.63171 | 126.37802 | 13001 ft | 351 kts | 21° |
| 2026-05-04 02:15 | 33.65338 | 126.39189 | 13758 ft | 354 kts | 21° |
| 2026-05-04 02:15 | 33.67527 | 126.40579 | 14391 ft | 358 kts | 20° |
| 2026-05-04 02:15 | 33.69001 | 126.41510 | 14741 ft | 362 kts | 20° |
| 2026-05-04 02:15 | 33.72033 | 126.43418 | 15491 ft | 370 kts | 20° |
| 2026-05-04 02:16 | 33.74300 | 126.44845 | 16054 ft | 375 kts | 20° |
| 2026-05-04 02:16 | 33.75872 | 126.45833 | 16428 ft | 379 kts | 20° |
| 2026-05-04 02:16 | 33.78991 | 126.47795 | 17155 ft | 386 kts | 20° |
| 2026-05-04 02:16 | 33.80575 | 126.48792 | 17527 ft | 389 kts | 20° |
| 2026-05-04 02:17 | 33.82994 | 126.50316 | 18081 ft | 394 kts | 20° |
| 2026-05-04 02:17 | 33.85452 | 126.51865 | 18601 ft | 399 kts | 20° |
| 2026-05-04 02:17 | 33.87930 | 126.53428 | 19066 ft | 404 kts | 20° |
| 2026-05-04 02:17 | 33.90402 | 126.54988 | 19522 ft | 409 kts | 19° |
| 2026-05-04 02:18 | 33.92938 | 126.56589 | 19978 ft | 414 kts | 19° |
| 2026-05-04 02:18 | 33.95508 | 126.58213 | 20419 ft | 419 kts | 19° |
| 2026-05-04 02:18 | 33.98969 | 126.60402 | 20992 ft | 426 kts | 19° |
| 2026-05-04 02:18 | 34.00747 | 126.61527 | 21288 ft | 429 kts | 19° |
| 2026-05-04 02:19 | 34.03402 | 126.63210 | 21726 ft | 433 kts | 19° |
| 2026-05-04 02:19 | 34.06054 | 126.64892 | 22154 ft | 438 kts | 19° |
| 2026-05-04 02:19 | 34.08767 | 126.66613 | 22588 ft | 442 kts | 19° |
| 2026-05-04 02:19 | 34.11505 | 126.68351 | 22994 ft | 447 kts | 19° |
| 2026-05-04 02:20 | 34.14280 | 126.70115 | 23407 ft | 451 kts | 19° |
| 2026-05-04 02:20 | 34.17073 | 126.71892 | 23759 ft | 456 kts | 19° |
| 2026-05-04 02:20 | 34.19899 | 126.73689 | 24021 ft | 461 kts | 19° |
| 2026-05-04 02:20 | 34.22761 | 126.75482 | 24322 ft | 463 kts | 15° |
| 2026-05-04 02:21 | 34.25705 | 126.76846 | 24621 ft | 455 kts | 6° |
| 2026-05-04 02:21 | 34.28763 | 126.77675 | 24963 ft | 445 kts | 356° |
| 2026-05-04 02:21 | 34.31845 | 126.78034 | 25065 ft | 446 kts | 354° |
| 2026-05-04 02:21 | 34.34959 | 126.78324 | 25075 ft | 448 kts | 354° |
| 2026-05-04 02:22 | 34.37986 | 126.78600 | 25068 ft | 446 kts | 354° |
| 2026-05-04 02:22 | 34.41047 | 126.78890 | 25070 ft | 445 kts | 354° |
| 2026-05-04 02:22 | 34.44136 | 126.79196 | 25074 ft | 445 kts | 354° |
| 2026-05-04 02:22 | 34.47229 | 126.79511 | 25072 ft | 445 kts | 354° |
| 2026-05-04 02:23 | 34.50313 | 126.79832 | 25074 ft | 444 kts | 355° |
| 2026-05-04 02:23 | 34.53404 | 126.80157 | 25073 ft | 444 kts | 355° |
| 2026-05-04 02:23 | 34.56489 | 126.80485 | 25063 ft | 444 kts | 355° |
| 2026-05-04 02:23 | 34.59529 | 126.80810 | 25078 ft | 443 kts | 355° |
| 2026-05-04 02:24 | 34.62606 | 126.81138 | 25062 ft | 443 kts | 355° |
| 2026-05-04 02:24 | 34.65677 | 126.81466 | 25070 ft | 442 kts | 355° |
| 2026-05-04 02:24 | 34.68748 | 126.81794 | 25064 ft | 441 kts | 355° |
| 2026-05-04 02:24 | 34.71775 | 126.82117 | 25073 ft | 440 kts | 355° |
| 2026-05-04 02:25 | 34.74833 | 126.82442 | 25068 ft | 440 kts | 355° |
| 2026-05-04 02:25 | 34.77886 | 126.82767 | 25063 ft | 440 kts | 355° |
| 2026-05-04 02:25 | 34.80939 | 126.83093 | 25061 ft | 440 kts | 355° |
| 2026-05-04 02:25 | 34.83987 | 126.83417 | 25054 ft | 440 kts | 355° |
| 2026-05-04 02:26 | 34.87043 | 126.83744 | 25058 ft | 439 kts | 355° |
| 2026-05-04 02:26 | 34.90048 | 126.84067 | 25045 ft | 439 kts | 355° |
| 2026-05-04 02:26 | 34.93091 | 126.84394 | 25044 ft | 438 kts | 355° |
| 2026-05-04 02:26 | 34.96128 | 126.84720 | 25061 ft | 437 kts | 355° |
| 2026-05-04 02:27 | 34.99169 | 126.85046 | 25070 ft | 437 kts | 355° |
| 2026-05-04 02:27 | 35.02178 | 126.85367 | 25057 ft | 439 kts | 355° |
| 2026-05-04 02:27 | 35.05225 | 126.85694 | 25070 ft | 438 kts | 355° |
| 2026-05-04 02:27 | 35.08261 | 126.86021 | 25058 ft | 437 kts | 355° |
| 2026-05-04 02:28 | 35.11267 | 126.86345 | 25060 ft | 436 kts | 355° |
| 2026-05-04 02:28 | 35.14285 | 126.86671 | 25057 ft | 435 kts | 355° |
| 2026-05-04 02:28 | 35.17293 | 126.86998 | 25052 ft | 433 kts | 356° |
| 2026-05-04 02:28 | 35.20298 | 126.87326 | 25053 ft | 431 kts | 356° |
| 2026-05-04 02:29 | 35.23289 | 126.87651 | 25047 ft | 430 kts | 356° |
| 2026-05-04 02:29 | 35.26232 | 126.87972 | 25043 ft | 429 kts | 356° |
| 2026-05-04 02:29 | 35.29206 | 126.88296 | 25049 ft | 428 kts | 356° |
| 2026-05-04 02:29 | 35.32174 | 126.88619 | 25041 ft | 427 kts | 356° |
| 2026-05-04 02:30 | 35.35134 | 126.88941 | 25049 ft | 427 kts | 356° |
| 2026-05-04 02:30 | 35.38101 | 126.89266 | 25051 ft | 426 kts | 356° |
| 2026-05-04 02:30 | 35.41021 | 126.89584 | 25048 ft | 427 kts | 356° |
| 2026-05-04 02:30 | 35.43985 | 126.89907 | 25051 ft | 427 kts | 356° |
| 2026-05-04 02:31 | 35.46956 | 126.90232 | 25055 ft | 428 kts | 356° |
| 2026-05-04 02:31 | 35.49927 | 126.90557 | 25048 ft | 428 kts | 356° |
| 2026-05-04 02:31 | 35.52896 | 126.90882 | 25053 ft | 428 kts | 356° |
| 2026-05-04 02:31 | 35.55826 | 126.91203 | 25043 ft | 427 kts | 356° |
| 2026-05-04 02:32 | 35.58799 | 126.91528 | 25049 ft | 427 kts | 356° |
| 2026-05-04 02:32 | 35.61760 | 126.91852 | 25037 ft | 426 kts | 356° |
| 2026-05-04 02:32 | 35.64705 | 126.92175 | 25034 ft | 424 kts | 356° |
| 2026-05-04 02:32 | 35.67645 | 126.92498 | 25033 ft | 423 kts | 356° |
| 2026-05-04 02:33 | 35.70539 | 126.92816 | 25037 ft | 421 kts | 356° |
| 2026-05-04 02:33 | 35.73456 | 126.93136 | 25035 ft | 420 kts | 356° |
| 2026-05-04 02:33 | 35.76372 | 126.93456 | 25040 ft | 420 kts | 356° |
| 2026-05-04 02:33 | 35.79286 | 126.93776 | 25033 ft | 419 kts | 356° |
| 2026-05-04 02:34 | 35.82190 | 126.94095 | 25039 ft | 419 kts | 357° |
| 2026-05-04 02:34 | 35.85102 | 126.94415 | 25041 ft | 419 kts | 357° |
| 2026-05-04 02:34 | 35.87976 | 126.94731 | 25038 ft | 419 kts | 357° |
| 2026-05-04 02:34 | 35.90901 | 126.95054 | 25040 ft | 419 kts | 357° |
| 2026-05-04 02:35 | 35.93813 | 126.95377 | 25032 ft | 419 kts | 357° |
| 2026-05-04 02:35 | 35.96684 | 126.95697 | 25034 ft | 419 kts | 357° |
| 2026-05-04 02:35 | 35.99597 | 126.96022 | 25028 ft | 419 kts | 357° |
| 2026-05-04 02:35 | 36.02501 | 126.96347 | 25022 ft | 418 kts | 357° |
| 2026-05-04 02:36 | 36.05397 | 126.96672 | 25016 ft | 417 kts | 357° |
| 2026-05-04 02:36 | 36.08294 | 126.96997 | 25006 ft | 417 kts | 357° |
| 2026-05-04 02:36 | 36.11187 | 126.97321 | 25002 ft | 416 kts | 357° |
| 2026-05-04 02:36 | 36.14029 | 126.97639 | 24999 ft | 415 kts | 358° |
| 2026-05-04 02:37 | 36.16856 | 126.97962 | 24928 ft | 400 kts | 357° |
| 2026-05-04 02:37 | 36.19575 | 126.98274 | 24791 ft | 386 kts | 357° |
| 2026-05-04 02:37 | 36.22228 | 126.98574 | 24463 ft | 378 kts | 357° |
| 2026-05-04 02:37 | 36.24835 | 126.98864 | 24036 ft | 374 kts | 358° |
| 2026-05-04 02:38 | 36.27415 | 126.99149 | 23618 ft | 369 kts | 358° |
| 2026-05-04 02:38 | 36.29963 | 126.99432 | 23136 ft | 365 kts | 358° |
| 2026-05-04 02:38 | 36.32483 | 126.99714 | 22626 ft | 361 kts | 358° |
| 2026-05-04 02:38 | 36.34975 | 126.99994 | 22140 ft | 358 kts | 358° |
| 2026-05-04 02:39 | 36.37416 | 127.00269 | 21657 ft | 354 kts | 358° |
| 2026-05-04 02:39 | 36.39861 | 127.00402 | 21161 ft | 347 kts | 353° |
| 2026-05-04 02:39 | 36.42267 | 127.00320 | 20671 ft | 343 kts | 352° |
| 2026-05-04 02:39 | 36.44640 | 127.00211 | 20202 ft | 340 kts | 352° |
| 2026-05-04 02:40 | 36.46995 | 127.00103 | 19748 ft | 336 kts | 352° |
| 2026-05-04 02:40 | 36.49291 | 127.00003 | 19331 ft | 332 kts | 353° |
| 2026-05-04 02:40 | 36.51602 | 126.99910 | 18850 ft | 332 kts | 353° |
| 2026-05-04 02:40 | 36.53901 | 126.99822 | 18427 ft | 329 kts | 353° |
| 2026-05-04 02:41 | 36.56175 | 126.99737 | 18124 ft | 322 kts | 353° |
| 2026-05-04 02:41 | 36.58376 | 126.99657 | 17915 ft | 312 kts | 353° |
| 2026-05-04 02:41 | 36.60546 | 126.99579 | 17450 ft | 311 kts | 353° |
| 2026-05-04 02:41 | 36.62680 | 126.99500 | 16945 ft | 311 kts | 353° |
| 2026-05-04 02:42 | 36.64848 | 126.99421 | 16449 ft | 310 kts | 353° |
| 2026-05-04 02:42 | 36.67002 | 126.99343 | 16007 ft | 309 kts | 353° |
| 2026-05-04 02:42 | 36.69151 | 126.99266 | 15584 ft | 308 kts | 353° |
| 2026-05-04 02:42 | 36.71294 | 126.99198 | 15166 ft | 307 kts | 356° |
| 2026-05-04 02:43 | 36.73421 | 126.99696 | 14643 ft | 317 kts | 13° |
| 2026-05-04 02:43 | 36.75396 | 127.01003 | 14207 ft | 329 kts | 30° |
| 2026-05-04 02:43 | 36.77124 | 127.02838 | 13820 ft | 331 kts | 35° |
| 2026-05-04 02:43 | 36.78808 | 127.04789 | 13372 ft | 330 kts | 36° |
| 2026-05-04 02:44 | 36.80478 | 127.06759 | 12935 ft | 328 kts | 36° |
| 2026-05-04 02:44 | 36.82139 | 127.08711 | 12528 ft | 326 kts | 36° |
| 2026-05-04 02:44 | 36.83792 | 127.10638 | 12126 ft | 324 kts | 36° |
| 2026-05-04 02:44 | 36.85439 | 127.12547 | 11738 ft | 322 kts | 36° |
| 2026-05-04 02:45 | 36.87061 | 127.14424 | 11638 ft | 311 kts | 36° |
| 2026-05-04 02:45 | 36.88599 | 127.16201 | 11560 ft | 300 kts | 36° |
| 2026-05-04 02:45 | 36.90103 | 127.17935 | 11483 ft | 289 kts | 36° |
| 2026-05-04 02:45 | 36.91560 | 127.19613 | 11410 ft | 279 kts | 35° |
| 2026-05-04 02:46 | 36.92964 | 127.21230 | 11358 ft | 270 kts | 35° |
| 2026-05-04 02:46 | 36.94320 | 127.22793 | 11226 ft | 262 kts | 35° |
| 2026-05-04 02:46 | 36.95660 | 127.24336 | 10978 ft | 261 kts | 35° |
| 2026-05-04 02:46 | 36.96991 | 127.25870 | 10699 ft | 260 kts | 35° |
| 2026-05-04 02:47 | 36.98306 | 127.27392 | 10442 ft | 259 kts | 36° |
| 2026-05-04 02:47 | 36.99630 | 127.28927 | 10198 ft | 258 kts | 36° |
| 2026-05-04 02:47 | 37.00951 | 127.30459 | 9933 ft | 258 kts | 36° |
| 2026-05-04 02:47 | 37.02269 | 127.31990 | 9659 ft | 257 kts | 36° |
| 2026-05-04 02:48 | 37.03580 | 127.33513 | 9427 ft | 256 kts | 36° |
| 2026-05-04 02:48 | 37.04993 | 127.34711 | 9137 ft | 243 kts | 9° |
| 2026-05-04 02:48 | 37.06624 | 127.34720 | 8865 ft | 232 kts | 343° |
| 2026-05-04 02:48 | 37.08095 | 127.33945 | 8610 ft | 229 kts | 326° |
| 2026-05-04 02:49 | 37.09381 | 127.32772 | 8391 ft | 228 kts | 321° |
| 2026-05-04 02:49 | 37.10602 | 127.31546 | 8172 ft | 227 kts | 321° |
| 2026-05-04 02:49 | 37.11826 | 127.30307 | 7941 ft | 225 kts | 321° |
| 2026-05-04 02:49 | 37.13044 | 127.29081 | 7651 ft | 224 kts | 321° |
| 2026-05-04 02:50 | 37.14273 | 127.27855 | 7384 ft | 225 kts | 321° |
| 2026-05-04 02:50 | 37.15491 | 127.26641 | 7144 ft | 223 kts | 322° |
| 2026-05-04 02:50 | 37.16693 | 127.25443 | 6883 ft | 224 kts | 322° |
| 2026-05-04 02:50 | 37.17918 | 127.24230 | 6729 ft | 223 kts | 322° |
| 2026-05-04 02:51 | 37.19137 | 127.23025 | 6484 ft | 222 kts | 321° |
| 2026-05-04 02:51 | 37.20354 | 127.21819 | 6197 ft | 223 kts | 322° |
| 2026-05-04 02:51 | 37.21560 | 127.20628 | 6098 ft | 223 kts | 322° |
| 2026-05-04 02:51 | 37.22781 | 127.19418 | 6046 ft | 225 kts | 322° |
| 2026-05-04 02:52 | 37.24015 | 127.18205 | 6023 ft | 225 kts | 322° |
| 2026-05-04 02:52 | 37.25232 | 127.16989 | 6013 ft | 222 kts | 320° |
| 2026-05-04 02:52 | 37.26363 | 127.15664 | 6037 ft | 223 kts | 315° |
| 2026-05-04 02:52 | 37.27454 | 127.14289 | 6027 ft | 224 kts | 315° |
| 2026-05-04 02:53 | 37.28555 | 127.12899 | 6034 ft | 223 kts | 315° |
| 2026-05-04 02:53 | 37.29655 | 127.11522 | 6024 ft | 223 kts | 316° |
| 2026-05-04 02:53 | 37.30756 | 127.10150 | 6001 ft | 222 kts | 316° |
| 2026-05-04 02:53 | 37.31847 | 127.08790 | 5846 ft | 220 kts | 315° |
| 2026-05-04 02:54 | 37.32927 | 127.07444 | 5504 ft | 223 kts | 315° |
| 2026-05-04 02:54 | 37.34037 | 127.06067 | 5172 ft | 225 kts | 316° |
| 2026-05-04 02:54 | 37.35147 | 127.04666 | 4993 ft | 224 kts | 316° |
| 2026-05-04 02:54 | 37.36265 | 127.03305 | 4836 ft | 223 kts | 317° |
| 2026-05-04 02:55 | 37.38482 | 127.00578 | 4324 ft | 223 kts | 315° |
| 2026-05-04 02:55 | 37.39589 | 126.99216 | 4187 ft | 221 kts | 317° |
| 2026-05-04 02:55 | 37.40693 | 126.97890 | 3976 ft | 220 kts | 315° |
| 2026-05-04 02:56 | 37.41773 | 126.96553 | 3698 ft | 220 kts | 314° |
| 2026-05-04 02:56 | 37.42857 | 126.95210 | 3411 ft | 217 kts | 315° |
| 2026-05-04 02:56 | 37.43908 | 126.93885 | 3147 ft | 209 kts | 314° |
| 2026-05-04 02:56 | 37.44937 | 126.92644 | 2821 ft | 203 kts | 316° |
| 2026-05-04 02:57 | 37.45863 | 126.91403 | 2570 ft | 187 kts | 310° |
| 2026-05-04 02:57 | 37.46722 | 126.90254 | 2334 ft | 176 kts | 316° |
| 2026-05-04 02:57 | 37.47572 | 126.89219 | 2119 ft | 162 kts | 315° |
| 2026-05-04 02:57 | 37.48321 | 126.88278 | 1904 ft | 144 kts | 315° |
| 2026-05-04 02:58 | 37.49002 | 126.87439 | 1718 ft | 132 kts | 314° |
| 2026-05-04 02:58 | 37.49641 | 126.86624 | 1554 ft | 132 kts | 314° |
| 2026-05-04 02:58 | 37.50306 | 126.85782 | 1369 ft | 138 kts | 314° |
| 2026-05-04 02:58 | 37.50973 | 126.84934 | 1156 ft | 134 kts | 314° |
| 2026-05-04 02:59 | 37.51623 | 126.84114 | 970 ft | 133 kts | 314° |
| 2026-05-04 02:59 | 37.52275 | 126.83269 | 787 ft | 138 kts | 314° |
| 2026-05-04 02:59 | 37.52958 | 126.82404 | 562 ft | 138 kts | 316° |
| 2026-05-04 02:59 | 37.53633 | 126.81575 | 358 ft | 135 kts | 314° |
| 2026-05-04 03:00 | 37.54300 | 126.80735 | 208 ft | 135 kts | 314° |
| 2026-05-04 03:00 | 37.54960 | 126.79906 | 74 ft | 132 kts | 315° |
| 2026-05-04 03:00 | 37.55539 | 126.79176 | 67 ft | 94 kts | 315° |
| 2026-05-04 03:00 | 37.55865 | 126.78767 | 60 ft | 48 kts | 315° |
| 2026-05-04 03:01 | 37.56085 | 126.78489 | 63 ft | 41 kts | 317° |
| 2026-05-04 03:01 | 37.56323 | 126.78353 | 62 ft | 35 kts | 345° |
| 2026-05-04 03:01 | 37.56532 | 126.78410 | 61 ft | 31 kts | 44° |
| 2026-05-04 03:01 | 37.56649 | 126.78559 | 62 ft | 19 kts | 47° |
| 2026-05-04 03:02 | 37.56615 | 126.78694 | 66 ft | 18 kts | 136° |
| 2026-05-04 03:02 | 37.56527 | 126.78804 | 59 ft | 18 kts | 135° |
| 2026-05-04 03:02 | 37.56436 | 126.78919 | 60 ft | 19 kts | 135° |
| 2026-05-04 03:02 | 37.56344 | 126.79034 | 62 ft | 19 kts | 135° |
| 2026-05-04 03:03 | 37.56254 | 126.79147 | 61 ft | 18 kts | 135° |
| 2026-05-04 03:03 | 37.56168 | 126.79257 | 64 ft | 17 kts | 135° |
| 2026-05-04 03:03 | 37.56086 | 126.79361 | 65 ft | 17 kts | 135° |
| 2026-05-04 03:03 | 37.56004 | 126.79463 | 59 ft | 16 kts | 135° |
| 2026-05-04 03:04 | 37.55944 | 126.79573 | 65 ft | 15 kts | 104° |
| 2026-05-04 03:04 | 37.55926 | 126.79703 | 62 ft | 15 kts | 99° |
| 2026-05-04 03:04 | 37.55910 | 126.79828 | 64 ft | 14 kts | 99° |
| 2026-05-04 03:04 | 37.55893 | 126.79947 | 63 ft | 13 kts | 110° |
| 2026-05-04 03:05 | 37.55836 | 126.80036 | 66 ft | 13 kts | 135° |
| 2026-05-04 03:05 | 37.55773 | 126.80115 | 65 ft | 13 kts | 135° |
| 2026-05-04 03:05 | 37.55712 | 126.80193 | 60 ft | 12 kts | 135° |
| 2026-05-04 03:05 | 37.55711 | 126.80271 | 61 ft | 9 kts | 42° |
| 2026-05-04 03:06 | 37.55746 | 126.80313 | 65 ft | 4 kts | 45° |
| 2026-05-04 03:06 | 37.55760 | 126.80331 | 66 ft | 1 kts | 45° |
| 2026-05-04 03:06 | 37.55761 | 126.80333 | 66 ft | 0 kts | 45° |